Time;durP1;ratioP1;P1;durP2;ratioP2;P2;SDS_P1;SDS_P2;PMS_P1;PMS_P2;Temp;Humidity;BMP_temperature;BMP_pressure;BME280_temperature;BME280_humidity;BME280_pressure;Samples;Min_cycle;Max_cycle;Signal;HPM_P1;HPM_P2
2023/05/23 00:00:58;;;;;;;43.95;20.98;;;;;;;;;;5003637;28;20056;-68
2023/05/23 00:03:25;;;;;;;45.33;21.45;;;;;;;;;;5005646;28;20049;-76
2023/05/23 00:05:51;;;;;;;36.95;18.67;;;;;;;;;;5008297;28;20095;-73
2023/05/23 00:08:17;;;;;;;44.38;21.80;;;;;;;;;;4987086;28;20496;-74
2023/05/23 00:10:44;;;;;;;40.80;21.88;;;;;;;;;;5011937;28;20053;-72
2023/05/23 00:13:13;;;;;;;47.58;21.77;;;;;;;;;;4988898;28;20038;-71
2023/05/23 00:15:43;;;;;;;46.72;23.85;;;;;;;;;;5007920;28;20061;-73
2023/05/23 00:18:12;;;;;;;49.40;21.83;;;;;;;;;;5008154;28;20088;-70
2023/05/23 00:20:41;;;;;;;43.83;21.23;;;;;;;;;;5011702;28;20414;-69
2023/05/23 00:23:08;;;;;;;43.45;21.95;;;;;;;;;;4990534;28;20049;-72
2023/05/23 00:25:35;;;;;;;43.10;21.00;;;;;;;;;;4999217;28;20052;-69
2023/05/23 00:28:01;;;;;;;38.35;19.33;;;;;;;;;;4997531;28;20065;-73
2023/05/23 00:30:31;;;;;;;35.72;19.10;;;;;;;;;;5005775;28;20084;-70
2023/05/23 00:32:57;;;;;;;31.67;17.23;;;;;;;;;;4989062;28;20053;-71
2023/05/23 00:35:24;;;;;;;38.30;20.10;;;;;;;;;;4992946;28;20119;-76
2023/05/23 00:37:50;;;;;;;38.33;18.92;;;;;;;;;;4985391;28;20056;-73
2023/05/23 00:40:17;;;;;;;40.67;20.00;;;;;;;;;;4986014;28;20598;-73
2023/05/23 00:42:43;;;;;;;37.97;20.95;;;;;;;;;;5007011;28;20257;-74
2023/05/23 00:45:11;;;;;;;35.55;19.50;;;;;;;;;;5004727;28;20053;-71
2023/05/23 00:47:38;;;;;;;38.95;20.15;;;;;;;;;;4998139;28;20128;-73
2023/05/23 00:50:04;;;;;;;32.08;19.42;;;;;;;;;;5010753;28;20049;-72
2023/05/23 00:52:30;;;;;;;35.40;20.08;;;;;;;;;;5001340;28;20721;-69
2023/05/23 00:54:56;;;;;;;32.17;18.48;;;;;;;;;;4999717;28;20046;-70
2023/05/23 00:57:22;;;;;;;32.00;18.00;;;;;;;;;;5007566;28;20682;-71
2023/05/23 00:59:49;;;;;;;29.45;16.42;;;;;;;;;;5010919;28;20489;-75
2023/05/23 01:02:15;;;;;;;26.13;15.98;;;;;;;;;;4999536;28;20132;-73
2023/05/23 01:04:41;;;;;;;22.60;15.02;;;;;;;;;;4999885;28;20041;-77
2023/05/23 01:07:09;;;;;;;27.60;15.60;;;;;;;;;;4989731;28;20136;-71
2023/05/23 01:09:35;;;;;;;29.42;13.93;;;;;;;;;;4999704;28;20053;-71
2023/05/23 01:12:07;;;;;;;28.48;13.95;;;;;;;;;;4986503;28;20067;-68
2023/05/23 01:14:54;;;;;;;28.05;14.15;;;;;;;;;;5005152;28;20189;-72
2023/05/23 01:17:28;;;;;;;23.63;15.00;;;;;;;;;;5004550;28;20064;-71
2023/05/23 01:20:00;;;;;;;27.13;13.63;;;;;;;;;;4998805;28;20097;-68
2023/05/23 01:22:33;;;;;;;30.40;14.90;;;;;;;;;;5004392;28;20819;-72
2023/05/23 01:25:26;;;;;;;26.23;15.65;;;;;;;;;;5006172;28;20057;-72
2023/05/23 01:27:55;;;;;;;28.85;15.50;;;;;;;;;;4984082;28;20724;-72
2023/05/23 01:30:22;;;;;;;24.70;14.52;;;;;;;;;;5007605;28;20053;-71
2023/05/23 01:32:50;;;;;;;36.40;17.27;;;;;;;;;;4992970;28;20257;-75
2023/05/23 01:35:26;;;;;;;30.73;16.08;;;;;;;;;;5005081;28;20057;-71
2023/05/23 01:37:55;;;;;;;30.08;16.52;;;;;;;;;;5004064;28;20041;-73
2023/05/23 01:40:22;;;;;;;28.83;15.98;;;;;;;;;;5005953;28;20451;-78
2023/05/23 01:42:49;;;;;;;25.42;15.88;;;;;;;;;;5015146;28;20049;-71
2023/05/23 01:45:15;;;;;;;24.60;16.60;;;;;;;;;;5006886;28;20059;-71
2023/05/23 01:47:42;;;;;;;28.77;15.07;;;;;;;;;;5005687;28;20102;-74
2023/05/23 01:50:09;;;;;;;25.00;14.23;;;;;;;;;;5006298;28;20088;-78
2023/05/23 01:52:35;;;;;;;28.30;14.88;;;;;;;;;;5015771;28;20042;-72
2023/05/23 01:55:02;;;;;;;18.55;12.02;;;;;;;;;;4988008;28;20054;-72
2023/05/23 01:57:29;;;;;;;20.35;10.52;;;;;;;;;;5007308;28;20068;-75
2023/05/23 01:59:55;;;;;;;18.88;11.88;;;;;;;;;;4988701;28;20102;-75
2023/05/23 02:02:21;;;;;;;18.73;10.88;;;;;;;;;;5002463;28;20047;-75
2023/05/23 02:04:49;;;;;;;20.33;11.50;;;;;;;;;;4992295;28;20079;-75
2023/05/23 02:07:15;;;;;;;18.52;10.13;;;;;;;;;;4999969;28;20081;-72
2023/05/23 02:09:41;;;;;;;18.23;9.93;;;;;;;;;;5005592;28;20089;-70
2023/05/23 02:12:08;;;;;;;14.43;8.68;;;;;;;;;;5005183;28;20487;-72
2023/05/23 02:14:36;;;;;;;15.57;8.50;;;;;;;;;;5011258;28;20054;-74
2023/05/23 02:17:03;;;;;;;18.40;7.85;;;;;;;;;;4986238;28;20057;-69
2023/05/23 02:19:29;;;;;;;14.68;7.93;;;;;;;;;;4999336;28;20062;-75
2023/05/23 02:21:55;;;;;;;19.50;8.38;;;;;;;;;;5013231;28;20060;-72
2023/05/23 02:24:21;;;;;;;16.23;7.97;;;;;;;;;;5000329;28;20688;-72
2023/05/23 02:26:47;;;;;;;20.10;8.20;;;;;;;;;;4993221;28;20100;-73
2023/05/23 02:29:13;;;;;;;18.58;7.97;;;;;;;;;;5008099;28;20784;-75
2023/05/23 02:31:39;;;;;;;16.80;8.15;;;;;;;;;;5003231;28;20065;-74
2023/05/23 02:34:05;;;;;;;18.15;9.00;;;;;;;;;;4987705;28;20045;-73
2023/05/23 02:36:32;;;;;;;20.80;9.07;;;;;;;;;;5006235;28;20046;-75
2023/05/23 02:38:58;;;;;;;22.77;8.05;;;;;;;;;;5005872;28;20411;-76
2023/05/23 02:41:24;;;;;;;20.80;9.40;;;;;;;;;;5004825;28;20517;-73
2023/05/23 02:43:50;;;;;;;20.98;8.18;;;;;;;;;;5001154;28;20085;-76
2023/05/23 02:46:16;;;;;;;21.17;8.05;;;;;;;;;;5011937;28;20342;-70
2023/05/23 02:48:43;;;;;;;17.95;8.20;;;;;;;;;;5011259;28;20088;-75
2023/05/23 02:51:09;;;;;;;20.10;8.98;;;;;;;;;;4994718;28;20686;-73
2023/05/23 02:53:35;;;;;;;19.83;9.30;;;;;;;;;;5009417;28;20472;-72
2023/05/23 02:56:01;;;;;;;23.17;9.18;;;;;;;;;;5007619;28;20073;-71
2023/05/23 02:58:28;;;;;;;21.38;8.75;;;;;;;;;;5005761;28;20053;-76
2023/05/23 03:00:54;;;;;;;20.60;8.10;;;;;;;;;;5002153;28;20873;-73
2023/05/23 03:03:21;;;;;;;20.17;6.68;;;;;;;;;;4995252;28;20053;-75
2023/05/23 03:05:47;;;;;;;21.95;7.43;;;;;;;;;;5010206;28;20041;-74
2023/05/23 03:08:13;;;;;;;15.60;5.85;;;;;;;;;;5012100;28;20053;-74
2023/05/23 03:10:39;;;;;;;12.30;5.45;;;;;;;;;;5002826;28;20108;-75
2023/05/23 03:13:05;;;;;;;12.27;4.80;;;;;;;;;;5000361;28;20060;-74
2023/05/23 03:15:31;;;;;;;11.02;3.70;;;;;;;;;;5011522;28;20057;-73
2023/05/23 03:17:57;;;;;;;7.97;2.85;;;;;;;;;;4997947;28;20274;-74
2023/05/23 03:20:23;;;;;;;6.45;2.83;;;;;;;;;;5002469;28;20872;-75
2023/05/23 03:22:50;;;;;;;7.68;2.90;;;;;;;;;;4999578;28;20053;-77
2023/05/23 03:25:16;;;;;;;6.63;2.45;;;;;;;;;;5002326;28;20136;-75
2023/05/23 03:27:42;;;;;;;7.60;2.97;;;;;;;;;;4997905;28;20045;-74
2023/05/23 03:30:08;;;;;;;8.95;4.15;;;;;;;;;;5001643;28;20046;-73
2023/05/23 03:32:34;;;;;;;6.50;3.08;;;;;;;;;;4988341;28;20053;-77
2023/05/23 03:35:01;;;;;;;12.07;3.80;;;;;;;;;;5009979;28;20857;-79
2023/05/23 03:37:27;;;;;;;14.15;4.38;;;;;;;;;;4983023;28;20075;-72
2023/05/23 03:39:53;;;;;;;15.82;5.85;;;;;;;;;;5005912;28;20061;-73
2023/05/23 03:42:19;;;;;;;13.55;5.40;;;;;;;;;;5004555;28;20057;-74
2023/05/23 03:44:45;;;;;;;23.33;6.85;;;;;;;;;;5003371;28;20095;-77
2023/05/23 03:47:11;;;;;;;17.38;6.72;;;;;;;;;;5007212;28;20867;-72
2023/05/23 03:49:37;;;;;;;18.88;6.72;;;;;;;;;;5010957;28;20041;-72
2023/05/23 03:52:03;;;;;;;17.38;7.20;;;;;;;;;;5012356;28;20057;-74
2023/05/23 03:54:29;;;;;;;21.73;7.03;;;;;;;;;;5005533;28;20153;-76
2023/05/23 03:56:56;;;;;;;20.92;7.43;;;;;;;;;;5003404;28;20054;-77
2023/05/23 03:59:22;;;;;;;16.92;5.97;;;;;;;;;;4983633;28;20637;-78
2023/05/23 04:01:48;;;;;;;17.75;7.30;;;;;;;;;;5009140;28;20055;-76
2023/05/23 04:04:15;;;;;;;26.70;9.40;;;;;;;;;;5001766;28;20041;-74
2023/05/23 04:06:43;;;;;;;20.88;6.72;;;;;;;;;;5001432;28;20061;-75
2023/05/23 04:09:09;;;;;;;23.15;6.10;;;;;;;;;;5005637;28;20057;-76
2023/05/23 04:11:35;;;;;;;18.40;6.90;;;;;;;;;;5011138;28;20211;-75
2023/05/23 04:14:01;;;;;;;18.48;6.80;;;;;;;;;;5010703;28;20049;-76
2023/05/23 04:16:31;;;;;;;17.65;5.85;;;;;;;;;;5008614;28;20050;-71
2023/05/23 04:18:58;;;;;;;15.68;4.93;;;;;;;;;;5005901;28;20148;-78
2023/05/23 04:21:24;;;;;;;19.17;5.25;;;;;;;;;;5004527;28;20046;-73
2023/05/23 04:23:50;;;;;;;12.52;4.85;;;;;;;;;;5001039;28;20848;-73
2023/05/23 04:26:16;;;;;;;15.48;5.38;;;;;;;;;;5005816;28;20053;-76
2023/05/23 04:28:45;;;;;;;12.82;5.10;;;;;;;;;;5007087;28;20077;-73
2023/05/23 04:31:11;;;;;;;12.07;4.57;;;;;;;;;;4988799;28;20054;-79
2023/05/23 04:33:37;;;;;;;18.40;4.38;;;;;;;;;;5008887;28;20064;-72
2023/05/23 04:36:04;;;;;;;15.45;5.15;;;;;;;;;;5004491;28;20089;-79
2023/05/23 04:38:30;;;;;;;25.23;7.07;;;;;;;;;;4990291;28;20151;-73
2023/05/23 04:40:57;;;;;;;14.20;4.40;;;;;;;;;;4992242;28;20060;-77
2023/05/23 04:43:25;;;;;;;18.85;5.07;;;;;;;;;;4999847;28;20061;-74
2023/05/23 04:45:56;;;;;;;12.77;4.40;;;;;;;;;;4980478;28;20061;-74
2023/05/23 04:48:23;;;;;;;16.38;4.75;;;;;;;;;;4995070;28;20559;-75
2023/05/23 04:50:51;;;;;;;15.55;3.85;;;;;;;;;;4979846;28;22893;-76
2023/05/23 04:53:17;;;;;;;27.50;5.97;;;;;;;;;;4981810;28;20068;-69
2023/05/23 04:55:43;;;;;;;15.02;4.78;;;;;;;;;;4980300;28;20053;-74
2023/05/23 04:58:11;;;;;;;16.80;3.92;;;;;;;;;;4986917;28;20064;-77
2023/05/23 05:00:38;;;;;;;11.55;3.17;;;;;;;;;;4994980;28;20075;-77
2023/05/23 05:03:04;;;;;;;16.15;3.78;;;;;;;;;;4983179;28;20057;-74
2023/05/23 05:05:30;;;;;;;15.15;3.80;;;;;;;;;;4990436;28;20154;-75
2023/05/23 05:07:56;;;;;;;10.02;3.22;;;;;;;;;;5000232;28;20057;-73
2023/05/23 05:10:22;;;;;;;12.68;3.10;;;;;;;;;;5002595;28;20735;-72
2023/05/23 05:12:48;;;;;;;14.05;3.05;;;;;;;;;;4978353;28;20064;-76
2023/05/23 05:15:18;;;;;;;9.38;3.00;;;;;;;;;;4996493;28;20102;-75
2023/05/23 05:17:45;;;;;;;13.68;3.13;;;;;;;;;;4970378;28;20125;-75
2023/05/23 05:20:11;;;;;;;15.02;3.78;;;;;;;;;;4995958;28;20116;-79
2023/05/23 05:22:41;;;;;;;17.35;3.17;;;;;;;;;;4978650;28;20053;-71
2023/05/23 05:25:08;;;;;;;17.48;3.97;;;;;;;;;;5011710;28;20057;-75
2023/05/23 05:27:36;;;;;;;17.75;4.93;;;;;;;;;;5008613;28;20054;-74
2023/05/23 05:30:07;;;;;;;14.35;5.70;;;;;;;;;;5014509;28;20124;-72
2023/05/23 05:32:34;;;;;;;12.70;4.05;;;;;;;;;;5010270;28;20049;-75
2023/05/23 05:35:00;;;;;;;13.65;4.65;;;;;;;;;;5005695;28;20061;-77
2023/05/23 05:37:26;;;;;;;16.90;4.90;;;;;;;;;;5008430;28;20076;-74
2023/05/23 05:39:53;;;;;;;20.63;5.32;;;;;;;;;;4990243;28;20041;-72
2023/05/23 05:42:19;;;;;;;17.40;6.00;;;;;;;;;;5005007;28;20061;-74
2023/05/23 05:44:46;;;;;;;16.50;4.75;;;;;;;;;;5013833;28;20604;-71
2023/05/23 05:47:12;;;;;;;15.10;5.55;;;;;;;;;;5014425;28;20049;-77
2023/05/23 05:49:38;;;;;;;12.82;5.03;;;;;;;;;;5014562;28;20137;-79
2023/05/23 05:52:06;;;;;;;15.13;5.85;;;;;;;;;;5008578;28;20045;-74
2023/05/23 05:54:32;;;;;;;17.50;6.28;;;;;;;;;;4996392;28;20489;-70
2023/05/23 05:56:58;;;;;;;17.95;6.20;;;;;;;;;;5012116;28;20125;-73
2023/05/23 05:59:24;;;;;;;14.23;5.13;;;;;;;;;;5003887;28;20120;-78
2023/05/23 06:01:51;;;;;;;13.93;5.72;;;;;;;;;;5002901;28;20136;-70
2023/05/23 06:04:18;;;;;;;15.70;5.82;;;;;;;;;;5007065;28;20053;-72
2023/05/23 06:06:44;;;;;;;14.60;6.72;;;;;;;;;;4993876;28;20053;-75
2023/05/23 06:09:10;;;;;;;16.13;5.45;;;;;;;;;;5014819;28;20049;-75
2023/05/23 06:11:39;;;;;;;12.93;5.00;;;;;;;;;;5007825;28;20081;-74
2023/05/23 06:14:05;;;;;;;14.48;5.38;;;;;;;;;;5008539;28;20041;-72
2023/05/23 06:16:31;;;;;;;14.20;6.38;;;;;;;;;;5010630;28;20195;-77
2023/05/23 06:18:57;;;;;;;13.05;5.20;;;;;;;;;;5005894;28;20042;-76
2023/05/23 06:21:23;;;;;;;10.73;4.22;;;;;;;;;;5010703;28;20215;-74
2023/05/23 06:23:51;;;;;;;14.32;4.65;;;;;;;;;;4996081;28;20050;-75
2023/05/23 06:26:17;;;;;;;11.50;4.70;;;;;;;;;;5006082;28;20057;-74
2023/05/23 06:28:43;;;;;;;12.55;4.88;;;;;;;;;;4995811;28;20632;-74
2023/05/23 06:31:09;;;;;;;16.48;5.00;;;;;;;;;;5002302;28;20061;-71
2023/05/23 06:33:35;;;;;;;12.27;4.55;;;;;;;;;;5005657;28;20106;-71
2023/05/23 06:36:01;;;;;;;15.05;4.32;;;;;;;;;;5003755;28;20041;-76
2023/05/23 06:38:32;;;;;;;15.25;3.38;;;;;;;;;;4989104;28;20972;-73
2023/05/23 06:40:59;;;;;;;12.57;3.20;;;;;;;;;;4996948;28;20692;-72
2023/05/23 06:43:25;;;;;;;12.50;2.47;;;;;;;;;;5013180;28;20508;-72
2023/05/23 06:45:51;;;;;;;11.10;3.65;;;;;;;;;;4998692;28;20538;-75
2023/05/23 06:48:17;;;;;;;11.55;3.50;;;;;;;;;;5007305;28;20107;-76
2023/05/23 06:50:43;;;;;;;11.02;3.60;;;;;;;;;;5013292;28;20509;-73
2023/05/23 06:53:09;;;;;;;16.92;4.38;;;;;;;;;;4990159;28;20054;-71
2023/05/23 06:55:35;;;;;;;10.35;2.33;;;;;;;;;;5013398;28;20049;-72
2023/05/23 06:58:05;;;;;;;16.13;2.65;;;;;;;;;;5012760;28;20053;-69
2023/05/23 07:00:31;;;;;;;11.20;3.40;;;;;;;;;;5000213;28;20103;-74
2023/05/23 07:03:02;;;;;;;12.05;2.72;;;;;;;;;;5013341;28;20053;-71
2023/05/23 07:05:28;;;;;;;14.77;2.95;;;;;;;;;;5004276;28;20053;-74
2023/05/23 07:07:54;;;;;;;11.20;2.42;;;;;;;;;;5008411;28;20496;-72
2023/05/23 07:10:20;;;;;;;8.48;2.08;;;;;;;;;;5001066;28;20510;-73
2023/05/23 07:12:47;;;;;;;16.40;4.00;;;;;;;;;;4997986;28;20053;-73
2023/05/23 07:15:13;;;;;;;13.57;2.10;;;;;;;;;;4995650;28;20391;-74
2023/05/23 07:17:40;;;;;;;15.80;2.10;;;;;;;;;;5001564;28;20057;-72
2023/05/23 07:20:08;;;;;;;13.07;2.38;;;;;;;;;;5005353;28;20081;-72
2023/05/23 07:22:35;;;;;;;14.85;3.03;;;;;;;;;;4985788;28;20477;-77
2023/05/23 07:25:01;;;;;;;15.98;2.22;;;;;;;;;;5011724;28;20046;-72
2023/05/23 07:27:27;;;;;;;10.93;2.58;;;;;;;;;;5010983;28;20057;-74
2023/05/23 07:29:53;;;;;;;15.73;2.22;;;;;;;;;;5000312;28;20045;-73
2023/05/23 07:32:19;;;;;;;11.68;2.60;;;;;;;;;;5000964;28;20173;-72
2023/05/23 07:34:45;;;;;;;15.13;2.20;;;;;;;;;;5012082;28;20060;-71
2023/05/23 07:37:11;;;;;;;16.13;2.15;;;;;;;;;;5011871;28;20106;-73
2023/05/23 07:39:38;;;;;;;9.18;2.10;;;;;;;;;;5009435;28;20056;-72
2023/05/23 07:42:04;;;;;;;15.35;2.05;;;;;;;;;;5009576;28;20544;-72
2023/05/23 07:44:30;;;;;;;18.08;3.42;;;;;;;;;;4998338;28;20049;-73
2023/05/23 07:46:56;;;;;;;20.83;3.25;;;;;;;;;;4995866;28;20056;-70
2023/05/23 07:49:22;;;;;;;11.95;2.17;;;;;;;;;;5002683;28;20537;-72
2023/05/23 07:51:49;;;;;;;22.80;3.47;;;;;;;;;;5012058;28;20077;-73
2023/05/23 07:54:15;;;;;;;14.75;2.10;;;;;;;;;;4991357;28;20055;-74
2023/05/23 07:56:42;;;;;;;14.35;2.22;;;;;;;;;;5000091;28;20485;-74
2023/05/23 07:59:08;;;;;;;15.23;3.38;;;;;;;;;;4990347;28;20045;-73
2023/05/23 08:01:35;;;;;;;16.85;3.35;;;;;;;;;;5001979;28;20058;-75
2023/05/23 08:04:02;;;;;;;17.30;2.15;;;;;;;;;;5010021;28;20057;-73
2023/05/23 08:06:28;;;;;;;15.95;2.20;;;;;;;;;;4995590;28;20041;-73
2023/05/23 08:08:54;;;;;;;15.93;2.17;;;;;;;;;;5011835;28;20045;-73
2023/05/23 08:11:21;;;;;;;13.82;2.33;;;;;;;;;;5003127;28;20439;-74
2023/05/23 08:13:47;;;;;;;12.05;1.92;;;;;;;;;;5010353;28;20216;-73
2023/05/23 08:16:13;;;;;;;9.43;1.83;;;;;;;;;;5006068;28;20470;-74
2023/05/23 08:18:39;;;;;;;8.77;1.95;;;;;;;;;;5005270;28;20490;-74
2023/05/23 08:21:05;;;;;;;19.25;2.80;;;;;;;;;;5005552;28;20084;-71
2023/05/23 08:23:31;;;;;;;12.15;1.55;;;;;;;;;;5002192;28;20442;-75
2023/05/23 08:25:57;;;;;;;14.52;3.17;;;;;;;;;;5004712;28;20499;-72
2023/05/23 08:28:24;;;;;;;12.13;1.83;;;;;;;;;;4989085;28;20049;-72
2023/05/23 08:30:50;;;;;;;14.70;3.03;;;;;;;;;;5004640;28;20060;-75
2023/05/23 08:33:16;;;;;;;16.85;2.55;;;;;;;;;;5004726;28;20085;-72
2023/05/23 08:35:42;;;;;;;16.98;3.05;;;;;;;;;;5005097;28;20055;-72
2023/05/23 08:38:09;;;;;;;9.15;2.78;;;;;;;;;;4991757;28;20048;-73
2023/05/23 08:40:36;;;;;;;15.20;3.55;;;;;;;;;;5007636;28;20049;-72
2023/05/23 08:43:02;;;;;;;14.43;2.97;;;;;;;;;;5008211;28;20045;-76
2023/05/23 08:45:29;;;;;;;14.82;2.15;;;;;;;;;;5008223;28;20041;-71
2023/05/23 08:47:55;;;;;;;13.98;2.45;;;;;;;;;;5009099;28;20132;-73
2023/05/23 08:50:21;;;;;;;18.98;3.33;;;;;;;;;;4992168;28;20069;-71
2023/05/23 08:52:53;;;;;;;12.27;2.10;;;;;;;;;;5006800;28;20045;-73
2023/05/23 08:55:20;;;;;;;11.90;2.10;;;;;;;;;;5008188;28;20052;-70
2023/05/23 08:57:47;;;;;;;11.52;2.47;;;;;;;;;;4995997;28;20514;-71
2023/05/23 09:00:15;;;;;;;10.93;2.22;;;;;;;;;;5006603;28;20049;-72
2023/05/23 09:02:44;;;;;;;14.60;3.63;;;;;;;;;;5009062;28;20056;-72
2023/05/23 09:05:11;;;;;;;29.00;4.05;;;;;;;;;;4991156;28;20458;-71
2023/05/23 09:07:38;;;;;;;16.15;2.20;;;;;;;;;;5008416;28;20748;-72
2023/05/23 09:10:06;;;;;;;14.15;3.10;;;;;;;;;;4992739;28;20041;-72
2023/05/23 09:12:32;;;;;;;9.98;1.70;;;;;;;;;;4991325;28;20169;-72
2023/05/23 09:14:59;;;;;;;10.25;2.35;;;;;;;;;;5006898;28;20083;-72
2023/05/23 09:17:25;;;;;;;10.27;2.28;;;;;;;;;;5008690;28;20068;-72
2023/05/23 09:19:51;;;;;;;14.13;3.15;;;;;;;;;;5009809;28;20048;-72
2023/05/23 09:22:24;;;;;;;10.95;2.38;;;22.50;72.60;;;;;;5008803;28;21084;-73
2023/05/23 09:24:52;;;;;;;18.52;3.42;;;;;;;;;;5008837;28;20049;-71
2023/05/23 09:27:18;;;;;;;12.68;2.58;;;;;;;;;;5007695;28;20107;-72
2023/05/23 09:29:46;;;;;;;12.07;2.25;;;;;;;;;;4999506;28;20045;-73
2023/05/23 09:32:13;;;;;;;12.50;2.00;;;;;;;;;;4992213;28;20140;-72
2023/05/23 09:34:40;;;;;;;10.20;1.92;;;;;;;;;;5007969;28;20101;-72
2023/05/23 09:37:07;;;;;;;14.57;2.35;;;;;;;;;;5008745;28;20053;-72
2023/05/23 09:39:37;;;;;;;13.02;2.15;;;;;;;;;;5008571;28;20134;-74
2023/05/23 09:42:03;;;;;;;14.38;2.55;;;;;;;;;;4992454;28;20087;-71
2023/05/23 09:44:29;;;;;;;16.17;2.92;;;;;;;;;;5008363;28;20095;-72
2023/05/23 09:46:55;;;;;;;14.57;2.20;;;;;;;;;;5007459;28;20128;-72
2023/05/23 09:49:22;;;;;;;9.40;1.85;;;;;;;;;;5008140;28;20045;-72
2023/05/23 09:51:58;;;;;;;13.65;1.73;;;;;;;;;;5000971;28;20053;-74
2023/05/23 09:54:24;;;;;;;13.43;2.25;;;;;;;;;;5014338;28;20049;-75
2023/05/23 09:56:52;;;;;;;8.98;1.73;;;;;;;;;;5014312;28;20053;-72
2023/05/23 09:59:23;;;;;;;10.63;1.80;;;;;;;;;;5001102;28;20099;-72
2023/05/23 10:01:52;;;;;;;11.43;1.92;;;;;;;;;;5005493;28;20061;-71
2023/05/23 10:04:24;;;;;;;12.95;2.35;;;;;;;;;;5009840;28;20089;-73
2023/05/23 10:06:52;;;;;;;10.10;1.60;;;;;;;;;;4987308;28;20099;-74
2023/05/23 10:09:20;;;;;;;9.52;1.80;;;;;;;;;;5008771;28;20834;-70
2023/05/23 10:11:46;;;;;;;8.55;1.60;;;;;;;;;;5009020;28;20153;-72
2023/05/23 10:14:12;;;;;;;12.00;1.83;;;;;;;;;;5006541;28;20140;-73
2023/05/23 10:16:38;;;;;;;13.20;2.13;;;;;;;;;;5014037;28;20123;-69
2023/05/23 10:19:25;;;;;;;14.18;2.47;;;;;;;;;;5001255;28;20045;-73
2023/05/23 10:21:56;;;;;;;20.40;3.30;;;;;;;;;;4993321;28;20049;-73
2023/05/23 10:24:24;;;;;;;8.32;2.50;;;;;;;;;;4981575;28;20068;-72
2023/05/23 10:26:50;;;;;;;6.72;2.13;;;;;;;;;;5005856;28;20053;-72
2023/05/23 10:29:17;;;;;;;9.00;1.25;;;;;;;;;;5005854;28;20053;-73
2023/05/23 10:31:43;;;;;;;11.52;1.75;;;;;;;;;;5010087;28;20054;-72
2023/05/23 10:34:16;;;;;;;10.25;1.73;;;;;;;;;;5012121;28;20919;-70
2023/05/23 10:36:53;;;;;;;9.90;1.58;;;;;;;;;;5013122;28;20058;-73
2023/05/23 10:39:30;;;;;;;8.90;1.80;;;;;;;;;;4993244;28;20062;-73
2023/05/23 10:41:59;;;;;;;10.05;1.60;;;;;;;;;;4992329;28;20053;-73
2023/05/23 10:44:30;;;;;;;10.52;1.83;;;;;;;;;;5004131;28;20506;-71
2023/05/23 10:47:02;;;;;;;10.73;1.67;;;;;;;;;;4991239;28;20049;-72
2023/05/23 10:49:51;;;;;;;9.63;1.55;;;;;;;;;;5012963;28;20136;-72
2023/05/23 10:52:17;;;;;;;8.40;1.45;;;;;;;;;;4987827;28;20132;-71
2023/05/23 10:54:48;;;;;;;11.43;1.70;;;;;;;;;;5005505;28;20807;-72
2023/05/23 10:57:19;;;;;;;8.00;1.48;;;;;;;;;;4996714;28;20144;-72
2023/05/23 10:59:45;;;;;;;11.15;1.40;;;;;;;;;;5011295;28;20277;-71
2023/05/23 11:02:16;;;;;;;13.82;1.73;;;;;;;;;;5012033;28;20046;-72
2023/05/23 11:04:42;;;;;;;11.50;1.10;;;;;;;;;;5008272;28;20116;-72
2023/05/23 11:07:34;;;;;;;7.45;1.38;;;;;;;;;;5008288;28;20045;-74
2023/05/23 11:10:04;;;;;;;16.40;1.98;;;;;;;;;;5006840;28;20135;-71
2023/05/23 11:12:41;;;;;;;11.18;2.30;;;;;;;;;;4999379;28;20140;-71
2023/05/23 11:15:16;;;;;;;11.65;1.35;;;;;;;;;;4989868;28;20049;-73
2023/05/23 11:17:52;;;;;;;9.25;1.10;;;;;;;;;;5004867;28;20050;-71
2023/05/23 11:20:22;;;;;;;7.82;1.23;;;;;;;;;;4995451;28;20053;-72
2023/05/23 11:22:58;;;;;;;8.40;1.35;;;;;;;;;;5011579;28;20088;-72
2023/05/23 11:25:39;;;;;;;10.75;1.23;;;;;;;;;;4995342;28;20052;-72
2023/05/23 11:28:06;;;;;;;9.77;2.13;;;;;;;;;;4992965;28;20056;-73
2023/05/23 11:30:32;;;;;;;13.55;2.05;;;;;;;;;;5008736;28;20052;-72
2023/05/23 11:32:58;;;;;;;12.57;1.52;;;;;;;;;;5002493;28;20790;-71
2023/05/23 11:35:24;;;;;;;11.82;2.38;;;;;;;;;;4994744;28;20053;-73
2023/05/23 11:37:51;;;;;;;14.48;1.80;;;;;;;;;;5011305;28;20171;-70
2023/05/23 11:40:31;;;;;;;10.85;1.63;;;;;;;;;;5004266;28;20886;-69
2023/05/23 11:42:57;;;;;;;11.10;1.63;;;;;;;;;;5006038;28;20049;-72
2023/05/23 11:45:24;;;;;;;12.98;1.77;;;;;;;;;;5004707;28;20042;-72
2023/05/23 11:47:50;;;;;;;6.80;1.08;;;;;;;;;;5001602;28;20123;-71
2023/05/23 11:50:17;;;;;;;8.13;1.00;;;;;;;;;;5004181;28;20590;-70
2023/05/23 11:52:44;;;;;;;12.18;2.00;;;;;;;;;;5004086;28;20045;-72
2023/05/23 11:55:10;;;;;;;13.10;1.85;;;;;;;;;;4986519;28;20537;-70
2023/05/23 11:57:39;;;;;;;13.77;1.90;;;;;;;;;;4963961;28;20629;-71
2023/05/23 12:00:07;;;;;;;11.45;1.48;;;;;;;;;;4975425;28;20056;-72
2023/05/23 12:02:39;;;;;;;7.22;0.98;;;;;;;;;;4976057;28;20053;-68
2023/05/23 12:05:12;;;;;;;7.72;1.40;;;;;;;;;;4972183;28;20128;-72
2023/05/23 12:07:46;;;;;;;8.57;1.83;;;;;;;;;;4994091;28;20057;-71
2023/05/23 12:10:12;;;;;;;12.07;1.17;;;;;;;;;;4993916;28;22643;-70
2023/05/23 12:12:41;;;;;;;6.32;1.00;;;;;;;;;;4995023;28;20061;-71
2023/05/23 12:15:10;;;;;;;11.25;1.20;;;;;;;;;;4980633;28;20072;-71
2023/05/23 12:17:44;;;;;;;6.80;1.17;;;;;;;;;;4985245;28;20139;-71
2023/05/23 12:20:11;;;;;;;10.55;1.98;;;;;;;;;;4990377;28;20057;-70
2023/05/23 12:22:38;;;;;;;9.30;0.95;;;;;;;;;;4993591;28;20050;-71
2023/05/23 12:25:07;;;;;;;11.70;1.17;;;;;;;;;;4987560;28;20054;-71
2023/05/23 12:27:35;;;;;;;11.80;1.25;;;;;;;;;;4988991;28;20056;-70
2023/05/23 12:30:06;;;;;;;8.38;1.30;;;;;;;;;;4977391;28;21195;-69
2023/05/23 12:32:34;;;;;;;6.28;0.98;;;;;;;;;;4972490;28;20904;-71
2023/05/23 12:35:00;;;;;;;14.85;1.65;;;;;;;;;;4981281;28;20049;-70
2023/05/23 12:37:26;;;;;;;10.00;1.38;;;;;;;;;;4972415;28;20058;-71
2023/05/23 12:39:52;;;;;;;10.93;1.85;;;;;;;;;;4991583;28;20076;-71
2023/05/23 12:42:18;;;;;;;9.57;1.60;;;;;;;;;;4994359;28;20103;-70
2023/05/23 12:44:46;;;;;;;12.02;1.77;;;;;;;;;;4972548;28;20060;-72
2023/05/23 12:47:12;;;;;;;9.25;2.10;;;;;;;;;;4975643;28;20056;-72
2023/05/23 12:49:38;;;;;;;10.18;1.30;;;;;;;;;;4990895;28;20156;-71
2023/05/23 12:52:05;;;;;;;8.85;1.25;;;;;;;;;;4992394;28;20159;-71
2023/05/23 12:54:31;;;;;;;9.95;1.50;;;;;;;;;;4963626;28;20084;-70
2023/05/23 12:56:57;;;;;;;11.20;2.00;;;;;;;;;;4974702;28;20081;-70
2023/05/23 12:59:23;;;;;;;13.75;2.50;;;;;;;;;;4985878;28;20120;-71
2023/05/23 13:01:49;;;;;;;11.43;2.22;;;;;;;;;;4974281;28;20643;-71
2023/05/23 13:04:16;;;;;;;10.02;1.48;;;;;;;;;;4987137;28;20081;-70
2023/05/23 13:06:42;;;;;;;7.97;1.33;;;;;;;;;;4990597;28;20056;-71
2023/05/23 13:09:09;;;;;;;9.25;1.35;;;;;;;;;;4984779;28;21021;-72
2023/05/23 13:11:36;;;;;;;14.38;2.15;;;;;;;;;;4970467;28;20172;-72
2023/05/23 13:14:03;;;;;;;12.07;2.22;;;;;;;;;;4973355;28;20057;-73
2023/05/23 13:16:30;;;;;;;13.02;2.70;;;;;;;;;;4963883;28;20079;-71
2023/05/23 13:18:56;;;;;;;10.05;2.75;;;;;;;;;;4975799;28;20128;-73
2023/05/23 13:21:22;;;;;;;10.23;1.75;;;;;;;;;;4988851;28;20139;-72
2023/05/23 13:23:49;;;;;;;13.20;1.13;;;;;;;;;;4971942;28;20282;-74
2023/05/23 13:26:15;;;;;;;13.73;1.52;;;;;;;;;;4993865;28;20439;-73
2023/05/23 13:28:41;;;;;;;8.75;1.08;;;;;;;;;;4993060;28;20068;-73
2023/05/23 13:31:07;;;;;;;7.82;1.13;;;;;;;;;;5002972;28;20811;-71
2023/05/23 13:33:34;;;;;;;8.70;1.08;;;;;;;;;;4989290;28;20075;-73
2023/05/23 13:36:00;;;;;;;4.35;0.85;;;;;;;;;;4967364;28;20173;-73
2023/05/23 13:38:26;;;;;;;8.68;1.10;;;;;;;;;;4979751;28;20230;-70
2023/05/23 13:40:53;;;;;;;9.55;1.00;;;;;;;;;;4991104;28;20471;-71
2023/05/23 13:43:19;;;;;;;11.00;1.70;;;;;;;;;;4995997;28;20149;-72
2023/05/23 13:45:46;;;;;;;7.28;1.05;;;;;;;;;;4994405;28;20058;-75
2023/05/23 13:48:12;;;;;;;11.63;1.60;;;;;;;;;;4993741;28;20382;-73
2023/05/23 13:50:38;;;;;;;8.27;0.93;;;;;;;;;;4996889;28;20052;-71
2023/05/23 13:53:13;;;;;;;14.07;1.85;;;;;;;;;;4976968;28;20065;-72
2023/05/23 13:55:39;;;;;;;8.25;1.08;;;;;;;;;;4977337;28;20057;-70
2023/05/23 13:58:05;;;;;;;9.52;1.27;;;;;;;;;;4993420;28;20469;-71
2023/05/23 14:00:31;;;;;;;8.52;1.15;;;;;;;;;;4994986;28;20187;-70
2023/05/23 14:02:58;;;;;;;10.75;2.00;;;;;;;;;;4989492;28;20063;-73
2023/05/23 14:05:24;;;;;;;11.02;1.65;;;;;;;;;;4972240;28;20295;-71
2023/05/23 14:07:50;;;;;;;7.80;1.30;;;;;;;;;;4983016;28;20084;-70
2023/05/23 14:10:17;;;;;;;10.00;1.23;;;;;;;;;;4976061;28;20057;-71
2023/05/23 14:12:43;;;;;;;11.15;2.05;;;;;;;;;;4972311;28;20053;-70
2023/05/23 14:15:10;;;;;;;13.18;1.45;;;;;;;;;;4994515;28;20059;-71
2023/05/23 14:17:36;;;;;;;9.30;1.10;;;;;;;;;;4963836;28;20057;-71
2023/05/23 14:20:02;;;;;;;12.10;2.30;;;;;;;;;;4992135;28;20141;-73
2023/05/23 14:22:29;;;;;;;10.45;1.48;;;;;;;;;;4990312;28;20810;-71
2023/05/23 14:24:55;;;;;;;8.93;1.15;;;;;;;;;;4989600;28;20135;-70
2023/05/23 14:27:21;;;;;;;12.45;1.70;;;;;;;;;;4985675;28;20056;-71
2023/05/23 14:29:48;;;;;;;8.48;1.00;;;;;;;;;;4990484;28;20140;-70
2023/05/23 14:32:15;;;;;;;9.25;0.90;;;;;;;;;;4973271;28;20053;-71